createdAt,value
2023-03-06T02:31:27.485Z,10.87
2023-03-06T02:34:04.986Z,11.01
2023-03-06T02:36:39.632Z,11.05
2023-03-06T02:39:09.442Z,11.40
2023-03-06T02:41:39.078Z,11.57
2023-03-06T02:44:09.076Z,11.82
2023-03-06T02:46:37.820Z,12.05
2023-03-06T02:49:07.182Z,12.35
2023-03-06T02:51:36.377Z,12.37
2023-03-06T02:54:05.619Z,12.34
2023-03-06T02:56:34.689Z,12.68
2023-03-06T02:59:04.351Z,12.92
2023-03-06T03:01:33.388Z,13.20
2023-03-06T03:04:02.453Z,13.26
2023-03-06T03:06:31.952Z,13.47
2023-03-06T03:09:01.130Z,13.51
2023-03-06T03:11:30.560Z,13.77
2023-03-06T03:13:59.535Z,14.36
2023-03-06T03:16:29.785Z,14.58
2023-03-06T03:19:00.193Z,14.65
2023-03-06T03:21:29.069Z,14.37
2023-03-06T03:23:57.796Z,15.12
2023-03-06T03:26:30.114Z,15.48
2023-03-06T03:29:05.928Z,15.37
2023-03-06T03:31:34.836Z,15.59
2023-03-06T03:34:05.027Z,15.74
2023-03-06T03:36:38.430Z,15.98
2023-03-06T03:39:09.303Z,15.87
2023-03-06T03:41:39.553Z,15.69
2023-03-06T03:44:10.815Z,15.72
2023-03-06T03:46:40.899Z,15.91
2023-03-06T03:49:14.277Z,16.12
2023-03-06T03:51:47.059Z,16.55
2023-03-06T03:54:16.767Z,16.51
2023-03-06T03:56:48.460Z,16.51
2023-03-06T03:59:24.670Z,16.93
2023-03-06T04:02:08.153Z,17.15
2023-03-06T04:04:44.719Z,17.03
2023-03-06T04:07:13.887Z,17.10
2023-03-06T04:09:44.078Z,16.92
2023-03-06T04:12:14.956Z,16.85
2023-03-06T04:14:44.457Z,16.60
2023-03-06T04:17:13.283Z,16.60
2023-03-06T04:19:43.072Z,16.36
2023-03-06T04:22:12.613Z,16.08
2023-03-06T04:24:42.372Z,16.10
2023-03-06T04:27:11.313Z,15.60
2023-03-06T04:29:40.459Z,15.56
2023-03-06T04:32:10.469Z,15.81
2023-03-06T04:34:39.971Z,15.41
2023-03-06T04:37:19.403Z,15.67
2023-03-06T04:39:49.739Z,15.26
2023-03-06T04:42:19.403Z,15.48
2023-03-06T04:44:48.313Z,15.49
2023-03-06T04:47:19.049Z,15.49
2023-03-06T04:49:48.055Z,15.44
2023-03-06T04:52:17.020Z,15.31
2023-03-06T04:54:47.031Z,15.13
2023-03-06T04:57:16.920Z,15.26
2023-03-06T04:59:46.117Z,15.26
2023-03-06T05:02:14.995Z,15.12
2023-03-06T05:04:44.618Z,15.01
2023-03-06T05:07:13.855Z,15.30
2023-03-06T05:09:42.844Z,15.07
2023-03-06T05:12:11.513Z,15.12
2023-03-06T05:14:40.287Z,15.21
2023-03-06T05:17:08.870Z,15.06
2023-03-06T05:19:38.505Z,15.13
2023-03-06T05:22:07.571Z,14.96
2023-03-06T05:24:38.184Z,15.16
2023-03-06T05:27:07.420Z,15.17
2023-03-06T05:29:36.216Z,15.10
2023-03-06T05:32:05.910Z,14.99
2023-03-06T05:34:34.668Z,14.98
2023-03-06T05:37:03.324Z,15.18
2023-03-06T05:39:32.073Z,15.39
2023-03-06T05:42:01.245Z,15.62
2023-03-06T05:44:34.678Z,15.56
2023-03-06T05:47:03.710Z,15.89
2023-03-06T05:49:37.653Z,16.01
2023-03-06T05:52:08.270Z,16.08
2023-03-06T05:54:38.521Z,16.28
2023-03-06T05:57:07.764Z,17.11
2023-03-06T05:59:37.353Z,17.32
2023-03-06T06:02:06.482Z,16.99
2023-03-06T06:04:35.918Z,17.84
2023-03-06T06:07:04.761Z,18.09
2023-03-06T06:09:34.313Z,18.24
2023-03-06T06:12:05.034Z,18.81
2023-03-06T06:14:36.226Z,19.18
2023-03-06T06:17:05.452Z,19.83
2023-03-06T06:19:34.406Z,20.01
2023-03-06T06:22:04.782Z,19.89
2023-03-06T06:24:34.080Z,20.03
2023-03-06T06:27:04.111Z,20.16
2023-03-06T06:29:34.049Z,21.32
2023-03-06T06:32:03.450Z,21.40
2023-03-06T06:34:33.156Z,21.41
2023-03-06T06:37:02.465Z,21.45
2023-03-06T06:39:31.283Z,21.92
2023-03-06T06:42:25.904Z,22.55
2023-03-06T06:44:49.241Z,22.58
2023-03-06T06:47:23.104Z,23.06
2023-03-06T06:50:00.025Z,23.03
2023-03-06T06:52:29.338Z,23.27
2023-03-06T06:54:58.106Z,23.33
2023-03-06T06:57:27.144Z,23.35
2023-03-06T06:59:55.737Z,23.91
2023-03-06T07:02:25.048Z,23.56
2023-03-06T07:05:03.820Z,23.12
2023-03-06T07:07:38.800Z,24.11
2023-03-06T07:10:14.097Z,23.94
2023-03-06T07:12:43.522Z,23.44
2023-03-06T07:15:15.522Z,21.33
2023-03-06T07:17:44.860Z,19.73
2023-03-06T07:20:13.786Z,20.35
2023-03-06T07:22:50.769Z,20.78
2023-03-06T07:25:21.019Z,21.76
2023-03-06T07:27:53.854Z,21.94
2023-03-06T07:30:24.614Z,22.41
2023-03-06T07:32:55.583Z,22.85
2023-03-06T07:35:26.372Z,21.79
2023-03-06T07:37:55.637Z,19.28
2023-03-06T07:40:25.113Z,19.31
2023-03-06T07:43:12.983Z,18.18
2023-03-06T07:45:57.584Z,19.77
2023-03-06T07:48:26.926Z,20.45
2023-03-06T07:51:01.239Z,20.79
2023-03-06T07:53:31.099Z,18.78
2023-03-06T07:56:00.124Z,18.42
2023-03-06T07:58:29.233Z,17.79
2023-03-06T08:00:58.207Z,17.00
2023-03-06T08:03:27.270Z,16.75
2023-03-06T08:06:05.648Z,17.61
2023-03-06T08:08:36.627Z,17.05
2023-03-06T08:11:05.803Z,16.20
2023-03-06T08:13:35.183Z,15.53
2023-03-06T08:16:04.839Z,15.42
2023-03-06T08:18:34.169Z,15.20
2023-03-06T08:21:13.586Z,15.40
2023-03-06T08:23:43.276Z,15.32
2023-03-06T08:26:19.268Z,15.80
2023-03-06T08:28:49.594Z,18.07
2023-03-06T08:31:27.765Z,19.02
2023-03-06T08:33:58.377Z,17.24
2023-03-06T08:36:27.551Z,16.69
2023-03-06T08:38:56.621Z,16.58
2023-03-06T08:41:26.712Z,17.72
2023-03-06T08:43:55.436Z,17.57
2023-03-06T08:46:27.075Z,16.73
2023-03-06T08:48:55.952Z,16.56
2023-03-06T08:51:25.491Z,16.47
2023-03-06T08:53:55.272Z,15.96
2023-03-06T08:56:30.634Z,15.68
2023-03-06T08:59:02.077Z,15.44
2023-03-06T09:01:37.448Z,15.45
2023-03-06T09:04:12.632Z,14.89
2023-03-06T09:06:43.845Z,14.96
2023-03-06T09:09:13.881Z,14.97
2023-03-06T09:11:42.763Z,14.62
2023-03-06T09:14:11.546Z,14.37
2023-03-06T09:16:41.353Z,14.48
2023-03-06T09:19:10.571Z,14.36
2023-03-06T09:21:39.655Z,14.48
2023-03-06T09:24:09.543Z,14.32
2023-03-06T09:26:46.010Z,14.43
2023-03-06T09:29:17.281Z,14.35
2023-03-06T09:31:47.639Z,14.22
2023-03-06T09:34:16.733Z,14.14
2023-03-06T09:36:56.487Z,14.39
2023-03-06T09:39:28.003Z,14.39
2023-03-06T09:42:01.229Z,14.46
2023-03-06T09:44:36.091Z,14.24
2023-03-06T09:47:19.779Z,14.68
2023-03-06T09:49:51.246Z,14.55
2023-03-06T09:52:53.319Z,14.68
2023-03-06T09:55:28.117Z,14.23
2023-03-06T09:58:37.895Z,14.17
2023-03-06T10:01:22.321Z,14.18
2023-03-06T10:04:21.697Z,14.18
2023-03-06T10:06:54.318Z,14.29
2023-03-06T10:09:37.851Z,14.44
2023-03-06T10:12:25.473Z,14.61
2023-03-06T10:15:21.133Z,15.03
2023-03-06T10:17:50.833Z,15.63
2023-03-06T10:20:35.224Z,16.66
2023-03-06T10:23:05.338Z,17.47
2023-03-06T10:25:48.008Z,17.80
2023-03-06T10:28:18.272Z,18.66
2023-03-06T10:31:07.489Z,18.71
2023-03-06T10:33:52.070Z,18.89
2023-03-06T10:36:22.581Z,19.36
2023-03-06T10:38:51.467Z,18.05
2023-03-06T10:41:23.001Z,16.97
2023-03-06T10:44:07.561Z,15.85
2023-03-06T10:46:43.892Z,16.29
2023-03-06T10:49:31.669Z,16.95
2023-03-06T10:52:07.759Z,17.28
2023-03-06T10:54:42.544Z,17.56
2023-03-06T10:57:32.182Z,18.05
2023-03-06T11:00:03.516Z,17.90
2023-03-06T11:02:42.084Z,17.66
2023-03-06T11:05:22.280Z,17.87
2023-03-06T11:08:22.112Z,18.19
2023-03-06T11:11:03.241Z,17.53
2023-03-06T11:13:36.618Z,17.34
2023-03-06T11:16:26.067Z,17.27
2023-03-06T11:19:04.950Z,17.50
2023-03-06T11:21:38.537Z,17.20
2023-03-06T11:24:19.304Z,17.95
2023-03-06T11:27:02.946Z,18.00
2023-03-06T11:30:00.605Z,16.74
2023-03-06T11:32:33.968Z,17.36
2023-03-06T11:35:10.489Z,17.14
2023-03-06T11:37:55.580Z,16.95
2023-03-06T11:40:43.027Z,16.50
2023-03-06T11:43:24.550Z,16.57
2023-03-06T11:46:14.793Z,16.00
2023-03-06T11:48:53.151Z,16.01
2023-03-06T11:51:30.397Z,15.40
2023-03-06T11:54:01.708Z,14.86
2023-03-06T11:56:54.405Z,14.12
2023-03-06T12:00:04.445Z,13.95
2023-03-06T12:02:57.529Z,13.43
2023-03-06T12:05:49.449Z,13.23
2023-03-06T12:08:43.303Z,12.94
2023-03-06T12:11:33.168Z,12.69
2023-03-06T12:14:24.828Z,12.53
2023-03-06T12:17:08.232Z,12.42
2023-03-06T12:19:59.105Z,12.24
2023-03-06T12:22:57.423Z,11.96
2023-03-06T12:25:50.021Z,11.66
2023-03-06T12:28:56.043Z,11.50
2023-03-06T12:31:52.724Z,11.42
2023-03-06T12:34:43.654Z,11.29
2023-03-06T12:37:21.603Z,11.13
2023-03-06T12:40:29.033Z,11.25
2023-03-06T12:43:24.193Z,10.98
2023-03-06T12:46:00.535Z,10.76
2023-03-06T12:48:33.908Z,10.70
2023-03-06T12:51:04.480Z,10.36
2023-03-06T12:53:34.948Z,10.32
2023-03-06T12:56:06.629Z,10.08
2023-03-06T12:58:37.122Z,9.90
2023-03-06T13:01:38.236Z,9.70
2023-03-06T13:04:28.442Z,9.55
2023-03-06T13:07:18.254Z,9.48
2023-03-06T13:10:12.462Z,9.35
2023-03-06T13:13:01.995Z,9.39
2023-03-06T13:15:44.951Z,9.29
2023-03-06T13:18:23.372Z,9.38
2023-03-06T13:20:59.696Z,9.35
2023-03-06T13:23:52.435Z,9.27
2023-03-06T13:26:27.821Z,9.19
2023-03-06T13:28:58.924Z,9.18
2023-03-06T13:31:49.302Z,9.29
2023-03-06T13:34:33.311Z,9.41
2023-03-06T13:37:25.846Z,9.39
2023-03-06T13:40:00.553Z,9.40
2023-03-06T13:42:37.657Z,9.39
2023-03-06T13:45:10.148Z,9.24
2023-03-06T13:48:09.598Z,9.02
2023-03-06T13:50:47.954Z,8.43
2023-03-06T13:53:25.701Z,8.91
2023-03-06T13:56:17.831Z,8.95
2023-03-06T13:59:17.000Z,8.85
2023-03-06T14:02:11.181Z,8.74
2023-03-06T14:05:01.163Z,8.75
2023-03-06T14:07:34.607Z,8.81
2023-03-06T14:10:15.396Z,8.57
2023-03-06T14:12:56.908Z,8.65
2023-03-06T14:15:54.462Z,8.60
2023-03-06T14:18:45.576Z,8.26
2023-03-06T14:21:18.784Z,8.35
2023-03-06T14:23:48.229Z,8.09
2023-03-06T14:26:25.947Z,8.34
2023-03-06T14:28:56.674Z,8.33
2023-03-06T14:31:38.039Z,7.97
2023-03-06T14:34:09.993Z,8.09
2023-03-06T14:36:46.737Z,8.14
2023-03-06T14:39:29.618Z,8.09
2023-03-06T14:42:19.155Z,8.11
2023-03-06T14:45:21.488Z,7.81
2023-03-06T14:47:52.787Z,8.03
2023-03-06T14:50:31.232Z,8.02
2023-03-06T14:53:24.195Z,7.92
2023-03-06T14:56:04.989Z,7.85
2023-03-06T14:58:40.026Z,7.63
2023-03-06T15:01:11.730Z,7.66
2023-03-06T15:03:54.385Z,7.39
2023-03-06T15:06:48.813Z,7.70
2023-03-06T15:09:33.119Z,7.27
2023-03-06T15:12:24.314Z,7.47
2023-03-06T15:15:05.756Z,7.39
2023-03-06T15:17:46.775Z,7.35
2023-03-06T15:20:38.181Z,7.23
2023-03-06T15:23:27.392Z,7.14
2023-03-06T15:26:01.873Z,7.13
2023-03-06T15:28:37.929Z,6.97
2023-03-06T15:31:23.139Z,7.10
2023-03-06T15:34:24.824Z,7.05
2023-03-06T15:36:57.073Z,7.11
2023-03-06T15:39:42.721Z,7.06
2023-03-06T15:42:22.153Z,7.33
2023-03-06T15:45:01.069Z,7.22
2023-03-06T15:47:30.119Z,7.18
2023-03-06T15:49:59.248Z,7.52
2023-03-06T15:52:29.778Z,7.60
2023-03-06T15:54:59.449Z,7.57
2023-03-06T15:57:33.359Z,7.45
2023-03-06T16:00:03.307Z,7.39
2023-03-06T16:02:40.176Z,7.66
2023-03-06T16:05:28.397Z,7.40
2023-03-06T16:07:58.108Z,7.28
2023-03-06T16:10:29.946Z,6.88
2023-03-06T16:13:04.630Z,7.10
2023-03-06T16:15:40.103Z,7.26
2023-03-06T16:18:12.851Z,7.38
2023-03-06T16:20:45.934Z,7.43
2023-03-06T16:23:16.244Z,7.11
2023-03-06T16:25:48.726Z,7.16
2023-03-06T16:28:19.109Z,7.15
2023-03-06T16:30:47.865Z,7.24
2023-03-06T16:33:17.473Z,7.60
2023-03-06T16:35:48.465Z,7.58
2023-03-06T16:38:22.368Z,8.25
2023-03-06T16:40:51.434Z,8.04
2023-03-06T16:43:19.931Z,7.73
2023-03-06T16:45:49.389Z,7.46
2023-03-06T16:48:18.957Z,7.05
2023-03-06T16:50:47.850Z,7.11
2023-03-06T16:53:16.706Z,7.20
2023-03-06T16:55:46.685Z,7.14
2023-03-06T16:58:15.414Z,7.40
2023-03-06T17:00:44.618Z,7.16
2023-03-06T17:03:14.333Z,7.43
2023-03-06T17:05:44.231Z,7.84
2023-03-06T17:08:14.095Z,7.76
2023-03-06T17:10:43.319Z,7.64
2023-03-06T17:13:13.328Z,7.73
2023-03-06T17:15:42.549Z,7.51
2023-03-06T17:18:13.115Z,7.60
2023-03-06T17:20:49.584Z,7.49
2023-03-06T17:23:19.825Z,7.54
2023-03-06T17:25:48.669Z,7.46
2023-03-06T17:28:18.221Z,8.09
2023-03-06T17:30:47.578Z,8.29
2023-03-06T17:33:16.425Z,8.65
2023-03-06T17:35:46.239Z,8.30
2023-03-06T17:38:20.137Z,8.25
2023-03-06T17:40:49.993Z,8.50
2023-03-06T17:43:19.427Z,8.55
2023-03-06T17:45:48.677Z,8.37
2023-03-06T17:48:18.538Z,8.30
2023-03-06T17:50:55.408Z,8.23
2023-03-06T17:53:25.150Z,8.25
2023-03-06T17:55:54.513Z,8.46
2023-03-06T17:58:23.431Z,8.27
2023-03-06T18:00:53.391Z,8.03
2023-03-06T18:03:22.253Z,7.60
2023-03-06T18:06:11.104Z,7.89
2023-03-06T18:08:40.605Z,7.89
2023-03-06T18:11:11.989Z,7.98
2023-03-06T18:13:43.406Z,7.65
2023-03-06T18:16:15.201Z,7.73
2023-03-06T18:18:44.524Z,7.76
2023-03-06T18:21:16.106Z,7.73
2023-03-06T18:23:45.367Z,7.49
2023-03-06T18:26:33.221Z,7.50
2023-03-06T18:29:06.534Z,7.37
2023-03-06T18:31:43.097Z,7.24
2023-03-06T18:34:15.150Z,7.23
2023-03-06T18:36:44.901Z,7.18
2023-03-06T18:39:16.087Z,7.02
2023-03-06T18:41:46.456Z,6.75
2023-03-06T18:44:17.158Z,6.66
2023-03-06T18:46:48.045Z,6.59
2023-03-06T18:49:18.349Z,6.23
2023-03-06T18:51:49.692Z,6.01
2023-03-06T18:54:18.683Z,6.07
2023-03-06T18:56:47.613Z,6.00
2023-03-06T18:59:22.114Z,5.70
2023-03-06T19:01:52.762Z,5.71
2023-03-06T19:04:22.349Z,5.41
2023-03-06T19:06:53.408Z,5.69
2023-03-06T19:09:59.271Z,5.69
2023-03-06T19:12:31.318Z,5.49
2023-03-06T19:15:01.380Z,5.43
2023-03-06T19:17:32.845Z,5.37
2023-03-06T19:20:01.948Z,4.80
2023-03-06T19:22:33.280Z,5.18
2023-03-06T19:25:04.617Z,5.30
2023-03-06T19:27:36.479Z,5.30
2023-03-06T19:30:07.998Z,5.50
2023-03-06T19:32:39.341Z,5.65
2023-03-06T19:35:11.501Z,5.51
2023-03-06T19:37:43.742Z,5.49
2023-03-06T19:40:15.421Z,5.65
2023-03-06T19:42:44.748Z,5.65
2023-03-06T19:45:17.322Z,5.62
2023-03-06T19:47:48.000Z,5.64
2023-03-06T19:50:17.632Z,5.36
2023-03-06T19:52:46.517Z,5.45
2023-03-06T19:55:15.557Z,5.40
2023-03-06T19:57:46.294Z,5.40
2023-03-06T20:00:52.958Z,5.42
2023-03-06T20:03:24.932Z,5.23
2023-03-06T20:05:55.147Z,5.26
2023-03-06T20:08:24.172Z,5.15
2023-03-06T20:11:34.746Z,5.41
2023-03-06T20:14:06.300Z,5.73
2023-03-06T20:16:36.777Z,6.08
2023-03-06T20:19:07.888Z,6.10
2023-03-06T20:21:38.641Z,6.00
2023-03-06T20:24:09.306Z,5.97
2023-03-06T20:26:39.685Z,6.05
2023-03-06T20:29:08.549Z,6.05
2023-03-06T20:31:38.945Z,5.95
2023-03-06T20:34:08.952Z,6.01
2023-03-06T20:36:41.551Z,5.64
2023-03-06T20:39:16.512Z,5.99
2023-03-06T20:41:47.792Z,5.99
2023-03-06T20:44:31.203Z,5.71
2023-03-06T20:47:00.473Z,5.78
2023-03-06T20:49:29.904Z,5.48
2023-03-06T20:51:59.472Z,5.60
2023-03-06T20:54:28.484Z,5.37
2023-03-06T20:56:57.674Z,5.56
2023-03-06T20:59:26.587Z,5.59
2023-03-06T21:01:55.556Z,5.57
2023-03-06T21:04:24.722Z,5.65
2023-03-06T21:06:54.837Z,5.60
2023-03-06T21:09:23.979Z,5.47
2023-03-06T21:11:53.594Z,5.39
2023-03-06T21:14:23.016Z,5.45
2023-03-06T21:16:52.433Z,5.26
2023-03-06T21:19:21.403Z,4.99
2023-03-06T21:21:51.535Z,4.98
2023-03-06T21:24:23.306Z,4.99
2023-03-06T21:26:52.981Z,5.03
2023-03-06T21:29:22.235Z,4.97
2023-03-06T21:31:51.677Z,4.77
2023-03-06T21:34:21.562Z,4.78
2023-03-06T21:36:52.017Z,5.10
2023-03-06T21:39:21.132Z,5.01
2023-03-06T21:41:50.124Z,5.12
2023-03-06T21:44:19.202Z,5.13
2023-03-06T21:46:48.188Z,5.28
2023-03-06T21:49:17.363Z,5.36
2023-03-06T21:51:46.180Z,5.44
2023-03-06T21:54:15.927Z,5.19
2023-03-06T21:56:44.740Z,4.99
2023-03-06T21:59:14.492Z,4.92
2023-03-06T22:01:43.594Z,4.99
2023-03-06T22:04:12.853Z,5.03
2023-03-06T22:06:42.105Z,4.96
2023-03-06T22:09:14.669Z,4.97
2023-03-06T22:11:44.045Z,4.72
2023-03-06T22:14:13.021Z,4.72
2023-03-06T22:16:42.981Z,4.79
2023-03-06T22:19:11.951Z,4.83
2023-03-06T22:21:41.368Z,4.74
2023-03-06T22:24:10.475Z,4.74
2023-03-06T22:26:40.173Z,4.72
2023-03-06T22:29:08.853Z,4.82
2023-03-06T22:31:40.219Z,4.65
2023-03-06T22:34:09.258Z,4.97
2023-03-06T22:36:38.330Z,5.11
2023-03-06T22:39:07.390Z,5.17
2023-03-06T22:41:36.746Z,5.36
2023-03-06T22:44:06.247Z,5.51
2023-03-06T22:46:35.472Z,5.40
2023-03-06T22:49:04.691Z,5.47
2023-03-06T22:51:33.747Z,5.52
2023-03-06T22:54:02.389Z,6.09
2023-03-06T22:56:32.713Z,5.69
2023-03-06T22:59:02.481Z,6.03
2023-03-06T23:01:34.883Z,6.09
2023-03-06T23:04:09.337Z,5.91
2023-03-06T23:06:40.936Z,6.03
2023-03-06T23:09:21.612Z,6.88
2023-03-06T23:12:10.333Z,6.56
2023-03-06T23:14:57.837Z,6.25
2023-03-06T23:17:45.291Z,6.51
2023-03-06T23:20:33.001Z,5.90
2023-03-06T23:23:20.466Z,5.81
2023-03-06T23:25:49.940Z,5.71
2023-03-06T23:28:19.237Z,5.59
2023-03-06T23:30:48.576Z,5.40
